sensor_id;sensor_type;location;lat;lon;timestamp;temperature;humidity
10812;DHT22;5458;51.496;7.334;2022-07-17T00:00:18;17.80;85.40
10812;DHT22;5458;51.496;7.334;2022-07-17T00:02:43;17.70;85.40
10812;DHT22;5458;51.496;7.334;2022-07-17T00:05:09;17.70;86.40
10812;DHT22;5458;51.496;7.334;2022-07-17T00:07:35;17.70;86.20
10812;DHT22;5458;51.496;7.334;2022-07-17T00:10:01;17.60;86.20
10812;DHT22;5458;51.496;7.334;2022-07-17T00:12:26;17.60;86.60
10812;DHT22;5458;51.496;7.334;2022-07-17T00:14:52;17.50;86.90
10812;DHT22;5458;51.496;7.334;2022-07-17T00:17:18;17.50;87.40
10812;DHT22;5458;51.496;7.334;2022-07-17T00:19:44;17.50;87.60
10812;DHT22;5458;51.496;7.334;2022-07-17T00:22:09;17.40;88.40
10812;DHT22;5458;51.496;7.334;2022-07-17T00:24:35;17.40;88.00
10812;DHT22;5458;51.496;7.334;2022-07-17T00:27:01;17.40;88.40
10812;DHT22;5458;51.496;7.334;2022-07-17T00:29:26;17.30;88.70
10812;DHT22;5458;51.496;7.334;2022-07-17T00:31:52;17.30;88.90
10812;DHT22;5458;51.496;7.334;2022-07-17T00:34:17;17.30;89.40
10812;DHT22;5458;51.496;7.334;2022-07-17T00:36:44;17.20;89.50
10812;DHT22;5458;51.496;7.334;2022-07-17T00:39:10;17.20;90.10
10812;DHT22;5458;51.496;7.334;2022-07-17T00:41:36;17.10;90.30
10812;DHT22;5458;51.496;7.334;2022-07-17T00:44:11;17.10;90.40
10812;DHT22;5458;51.496;7.334;2022-07-17T00:46:39;17.10;90.50
10812;DHT22;5458;51.496;7.334;2022-07-17T00:49:07;17.10;90.70
10812;DHT22;5458;51.496;7.334;2022-07-17T00:51:33;17.00;90.70
10812;DHT22;5458;51.496;7.334;2022-07-17T00:54:00;17.00;90.80
10812;DHT22;5458;51.496;7.334;2022-07-17T00:56:27;17.00;91.00
10812;DHT22;5458;51.496;7.334;2022-07-17T00:58:54;16.90;91.00
10812;DHT22;5458;51.496;7.334;2022-07-17T01:01:20;16.90;91.10
10812;DHT22;5458;51.496;7.334;2022-07-17T01:03:45;16.80;91.10
10812;DHT22;5458;51.496;7.334;2022-07-17T01:06:11;16.80;91.30
10812;DHT22;5458;51.496;7.334;2022-07-17T01:08:37;16.80;91.40
10812;DHT22;5458;51.496;7.334;2022-07-17T01:11:03;16.70;91.40
10812;DHT22;5458;51.496;7.334;2022-07-17T01:13:30;16.70;91.50
10812;DHT22;5458;51.496;7.334;2022-07-17T01:15:56;16.70;91.60
10812;DHT22;5458;51.496;7.334;2022-07-17T01:18:22;16.70;91.60
10812;DHT22;5458;51.496;7.334;2022-07-17T01:20:49;16.70;91.60
10812;DHT22;5458;51.496;7.334;2022-07-17T01:23:16;16.70;91.50
10812;DHT22;5458;51.496;7.334;2022-07-17T01:25:43;16.70;91.50
10812;DHT22;5458;51.496;7.334;2022-07-17T01:28:09;16.70;91.50
10812;DHT22;5458;51.496;7.334;2022-07-17T01:30:36;16.60;91.60
10812;DHT22;5458;51.496;7.334;2022-07-17T01:33:02;16.60;91.70
10812;DHT22;5458;51.496;7.334;2022-07-17T01:35:28;16.60;91.80
10812;DHT22;5458;51.496;7.334;2022-07-17T01:37:53;16.50;91.80
10812;DHT22;5458;51.496;7.334;2022-07-17T01:40:19;16.50;91.90
10812;DHT22;5458;51.496;7.334;2022-07-17T01:42:49;16.40;92.00
10812;DHT22;5458;51.496;7.334;2022-07-17T01:45:17;16.40;92.20
10812;DHT22;5458;51.496;7.334;2022-07-17T01:47:43;16.40;92.40
10812;DHT22;5458;51.496;7.334;2022-07-17T01:50:10;16.40;92.40
10812;DHT22;5458;51.496;7.334;2022-07-17T01:52:38;16.30;92.50
10812;DHT22;5458;51.496;7.334;2022-07-17T01:55:06;16.30;92.60
10812;DHT22;5458;51.496;7.334;2022-07-17T01:57:32;16.30;92.70
10812;DHT22;5458;51.496;7.334;2022-07-17T01:59:57;16.30;92.80
10812;DHT22;5458;51.496;7.334;2022-07-17T02:02:23;16.30;92.90
10812;DHT22;5458;51.496;7.334;2022-07-17T02:04:49;16.30;93.00
10812;DHT22;5458;51.496;7.334;2022-07-17T02:07:14;16.20;93.10
10812;DHT22;5458;51.496;7.334;2022-07-17T02:09:40;16.20;93.20
10812;DHT22;5458;51.496;7.334;2022-07-17T02:12:06;16.10;93.40
10812;DHT22;5458;51.496;7.334;2022-07-17T02:14:32;16.10;93.30
10812;DHT22;5458;51.496;7.334;2022-07-17T02:16:57;16.10;93.50
10812;DHT22;5458;51.496;7.334;2022-07-17T02:19:23;16.00;93.60
10812;DHT22;5458;51.496;7.334;2022-07-17T02:21:49;16.00;93.70
10812;DHT22;5458;51.496;7.334;2022-07-17T02:24:14;15.90;93.80
10812;DHT22;5458;51.496;7.334;2022-07-17T02:26:40;15.90;93.90
10812;DHT22;5458;51.496;7.334;2022-07-17T02:29:06;15.90;93.90
10812;DHT22;5458;51.496;7.334;2022-07-17T02:31:32;15.90;93.90
10812;DHT22;5458;51.496;7.334;2022-07-17T02:33:58;15.90;93.90
10812;DHT22;5458;51.496;7.334;2022-07-17T02:36:24;15.80;94.00
10812;DHT22;5458;51.496;7.334;2022-07-17T02:38:50;15.80;94.10
10812;DHT22;5458;51.496;7.334;2022-07-17T02:41:15;15.80;94.30
10812;DHT22;5458;51.496;7.334;2022-07-17T02:43:44;15.80;94.30
10812;DHT22;5458;51.496;7.334;2022-07-17T02:46:10;15.70;94.30
10812;DHT22;5458;51.496;7.334;2022-07-17T02:48:35;15.70;94.40
10812;DHT22;5458;51.496;7.334;2022-07-17T02:51:01;15.70;94.50
10812;DHT22;5458;51.496;7.334;2022-07-17T02:53:26;15.60;94.40
10812;DHT22;5458;51.496;7.334;2022-07-17T02:55:52;15.70;94.50
10812;DHT22;5458;51.496;7.334;2022-07-17T02:58:18;15.60;94.50
10812;DHT22;5458;51.496;7.334;2022-07-17T03:00:43;15.60;94.60
10812;DHT22;5458;51.496;7.334;2022-07-17T03:03:09;15.60;94.70
10812;DHT22;5458;51.496;7.334;2022-07-17T03:05:35;15.60;94.80
10812;DHT22;5458;51.496;7.334;2022-07-17T03:08:00;15.60;94.80
10812;DHT22;5458;51.496;7.334;2022-07-17T03:10:26;15.60;94.80
10812;DHT22;5458;51.496;7.334;2022-07-17T03:12:51;15.60;94.80
10812;DHT22;5458;51.496;7.334;2022-07-17T03:15:17;15.50;94.70
10812;DHT22;5458;51.496;7.334;2022-07-17T03:17:43;15.50;94.70
10812;DHT22;5458;51.496;7.334;2022-07-17T03:20:09;15.50;94.80
10812;DHT22;5458;51.496;7.334;2022-07-17T03:22:35;15.50;94.90
10812;DHT22;5458;51.496;7.334;2022-07-17T03:25:01;15.40;95.00
10812;DHT22;5458;51.496;7.334;2022-07-17T03:27:26;15.40;95.10
10812;DHT22;5458;51.496;7.334;2022-07-17T03:29:52;15.40;95.20
10812;DHT22;5458;51.496;7.334;2022-07-17T03:32:19;15.40;95.30
10812;DHT22;5458;51.496;7.334;2022-07-17T03:34:44;15.30;95.30
10812;DHT22;5458;51.496;7.334;2022-07-17T03:37:10;15.30;95.30
10812;DHT22;5458;51.496;7.334;2022-07-17T03:39:36;15.30;95.40
10812;DHT22;5458;51.496;7.334;2022-07-17T03:42:01;15.30;95.40
10812;DHT22;5458;51.496;7.334;2022-07-17T03:44:27;15.30;95.40
10812;DHT22;5458;51.496;7.334;2022-07-17T03:46:53;15.30;95.50
10812;DHT22;5458;51.496;7.334;2022-07-17T03:49:18;15.30;95.60
10812;DHT22;5458;51.496;7.334;2022-07-17T03:51:44;15.20;95.60
10812;DHT22;5458;51.496;7.334;2022-07-17T03:54:09;15.20;95.60
10812;DHT22;5458;51.496;7.334;2022-07-17T03:56:35;15.30;95.60
10812;DHT22;5458;51.496;7.334;2022-07-17T03:59:01;15.20;95.70
10812;DHT22;5458;51.496;7.334;2022-07-17T04:01:26;15.20;95.80
10812;DHT22;5458;51.496;7.334;2022-07-17T04:03:52;15.20;95.90
10812;DHT22;5458;51.496;7.334;2022-07-17T04:06:18;15.20;95.90
10812;DHT22;5458;51.496;7.334;2022-07-17T04:08:44;15.20;96.00
10812;DHT22;5458;51.496;7.334;2022-07-17T04:11:09;15.20;96.00
10812;DHT22;5458;51.496;7.334;2022-07-17T04:13:35;15.20;96.10
10812;DHT22;5458;51.496;7.334;2022-07-17T04:16:01;15.20;96.10
10812;DHT22;5458;51.496;7.334;2022-07-17T04:18:29;15.20;96.10
10812;DHT22;5458;51.496;7.334;2022-07-17T04:20:57;15.20;96.10
10812;DHT22;5458;51.496;7.334;2022-07-17T04:23:23;15.20;96.10
10812;DHT22;5458;51.496;7.334;2022-07-17T04:25:49;15.20;96.00
10812;DHT22;5458;51.496;7.334;2022-07-17T04:28:15;15.30;96.10
10812;DHT22;5458;51.496;7.334;2022-07-17T04:30:41;15.30;96.10
10812;DHT22;5458;51.496;7.334;2022-07-17T04:33:07;15.30;96.10
10812;DHT22;5458;51.496;7.334;2022-07-17T04:35:33;15.30;96.10
10812;DHT22;5458;51.496;7.334;2022-07-17T04:37:59;15.30;96.20
10812;DHT22;5458;51.496;7.334;2022-07-17T04:40:25;15.30;96.20
10812;DHT22;5458;51.496;7.334;2022-07-17T04:42:50;15.40;96.30
10812;DHT22;5458;51.496;7.334;2022-07-17T04:45:16;15.40;96.30
10812;DHT22;5458;51.496;7.334;2022-07-17T04:47:42;15.40;96.30
10812;DHT22;5458;51.496;7.334;2022-07-17T04:50:09;15.40;96.20
10812;DHT22;5458;51.496;7.334;2022-07-17T04:52:35;15.50;96.30
10812;DHT22;5458;51.496;7.334;2022-07-17T04:55:00;15.50;96.20
10812;DHT22;5458;51.496;7.334;2022-07-17T04:57:26;15.40;96.30
10812;DHT22;5458;51.496;7.334;2022-07-17T04:59:52;15.50;96.30
10812;DHT22;5458;51.496;7.334;2022-07-17T05:02:18;15.50;96.30
10812;DHT22;5458;51.496;7.334;2022-07-17T05:04:43;15.50;96.40
10812;DHT22;5458;51.496;7.334;2022-07-17T05:07:09;15.50;96.40
10812;DHT22;5458;51.496;7.334;2022-07-17T05:09:35;15.60;96.40
10812;DHT22;5458;51.496;7.334;2022-07-17T05:12:00;15.70;96.50
10812;DHT22;5458;51.496;7.334;2022-07-17T05:14:26;15.70;96.30
10812;DHT22;5458;51.496;7.334;2022-07-17T05:16:52;15.80;96.20
10812;DHT22;5458;51.496;7.334;2022-07-17T05:19:17;15.90;96.00
10812;DHT22;5458;51.496;7.334;2022-07-17T05:21:43;16.00;96.00
10812;DHT22;5458;51.496;7.334;2022-07-17T05:24:08;16.10;95.80
10812;DHT22;5458;51.496;7.334;2022-07-17T05:26:34;16.30;95.60
10812;DHT22;5458;51.496;7.334;2022-07-17T05:29:00;16.40;95.50
10812;DHT22;5458;51.496;7.334;2022-07-17T05:31:25;16.70;94.90
10812;DHT22;5458;51.496;7.334;2022-07-17T05:33:51;17.40;94.10
10812;DHT22;5458;51.496;7.334;2022-07-17T05:36:16;19.00;92.30
10812;DHT22;5458;51.496;7.334;2022-07-17T05:38:42;21.00;88.40
10812;DHT22;5458;51.496;7.334;2022-07-17T05:41:08;22.80;81.80
10812;DHT22;5458;51.496;7.334;2022-07-17T05:43:33;24.40;74.80
10812;DHT22;5458;51.496;7.334;2022-07-17T05:45:59;25.80;67.50
10812;DHT22;5458;51.496;7.334;2022-07-17T05:48:25;26.50;62.50
10812;DHT22;5458;51.496;7.334;2022-07-17T05:50:52;27.20;59.10
10812;DHT22;5458;51.496;7.334;2022-07-17T05:53:17;27.90;56.60
10812;DHT22;5458;51.496;7.334;2022-07-17T05:55:43;28.80;55.10
10812;DHT22;5458;51.496;7.334;2022-07-17T05:58:09;29.50;53.60
10812;DHT22;5458;51.496;7.334;2022-07-17T06:00:35;30.20;52.10
10812;DHT22;5458;51.496;7.334;2022-07-17T06:03:01;30.80;50.50
10812;DHT22;5458;51.496;7.334;2022-07-17T06:05:27;31.30;49.00
10812;DHT22;5458;51.496;7.334;2022-07-17T06:07:54;31.90;47.60
10812;DHT22;5458;51.496;7.334;2022-07-17T06:10:20;32.30;46.50
10812;DHT22;5458;51.496;7.334;2022-07-17T06:12:45;32.70;44.60
10812;DHT22;5458;51.496;7.334;2022-07-17T06:15:12;32.70;43.80
10812;DHT22;5458;51.496;7.334;2022-07-17T06:17:38;32.70;44.40
10812;DHT22;5458;51.496;7.334;2022-07-17T06:20:04;32.90;44.30
10812;DHT22;5458;51.496;7.334;2022-07-17T06:22:30;33.40;43.30
10812;DHT22;5458;51.496;7.334;2022-07-17T06:24:56;33.60;41.60
10812;DHT22;5458;51.496;7.334;2022-07-17T06:27:22;33.90;41.60
10812;DHT22;5458;51.496;7.334;2022-07-17T06:29:47;34.50;41.10
10812;DHT22;5458;51.496;7.334;2022-07-17T06:32:13;35.00;40.20
10812;DHT22;5458;51.496;7.334;2022-07-17T06:34:39;35.60;39.70
10812;DHT22;5458;51.496;7.334;2022-07-17T06:37:04;35.80;38.50
10812;DHT22;5458;51.496;7.334;2022-07-17T06:39:30;36.10;38.80
10812;DHT22;5458;51.496;7.334;2022-07-17T06:41:56;36.20;37.70
10812;DHT22;5458;51.496;7.334;2022-07-17T06:44:22;36.40;37.50
10812;DHT22;5458;51.496;7.334;2022-07-17T06:46:48;36.40;37.30
10812;DHT22;5458;51.496;7.334;2022-07-17T06:49:14;36.70;37.50
10812;DHT22;5458;51.496;7.334;2022-07-17T06:51:40;36.80;36.40
10812;DHT22;5458;51.496;7.334;2022-07-17T06:54:06;36.80;36.50
10812;DHT22;5458;51.496;7.334;2022-07-17T06:56:31;37.10;36.00
10812;DHT22;5458;51.496;7.334;2022-07-17T06:58:57;37.50;35.30
10812;DHT22;5458;51.496;7.334;2022-07-17T07:01:23;37.00;35.30
10812;DHT22;5458;51.496;7.334;2022-07-17T07:03:48;37.20;35.70
10812;DHT22;5458;51.496;7.334;2022-07-17T07:06:14;37.90;35.70
10812;DHT22;5458;51.496;7.334;2022-07-17T07:08:40;38.50;34.50
10812;DHT22;5458;51.496;7.334;2022-07-17T07:11:05;38.80;33.40
10812;DHT22;5458;51.496;7.334;2022-07-17T07:13:31;38.90;33.50
10812;DHT22;5458;51.496;7.334;2022-07-17T07:15:57;38.50;33.40
10812;DHT22;5458;51.496;7.334;2022-07-17T07:18:22;38.50;33.10
10812;DHT22;5458;51.496;7.334;2022-07-17T07:20:48;38.60;32.40
10812;DHT22;5458;51.496;7.334;2022-07-17T07:23:14;38.70;32.70
10812;DHT22;5458;51.496;7.334;2022-07-17T07:25:39;39.10;32.30
10812;DHT22;5458;51.496;7.334;2022-07-17T07:28:05;39.10;31.70
10812;DHT22;5458;51.496;7.334;2022-07-17T07:30:31;39.00;32.20
10812;DHT22;5458;51.496;7.334;2022-07-17T07:32:57;39.40;32.00
10812;DHT22;5458;51.496;7.334;2022-07-17T07:35:23;39.20;31.20
10812;DHT22;5458;51.496;7.334;2022-07-17T07:37:49;39.60;31.80
10812;DHT22;5458;51.496;7.334;2022-07-17T07:40:14;39.70;30.60
10812;DHT22;5458;51.496;7.334;2022-07-17T07:42:40;39.60;30.80
10812;DHT22;5458;51.496;7.334;2022-07-17T07:45:06;39.80;31.00
10812;DHT22;5458;51.496;7.334;2022-07-17T07:47:32;39.70;30.50
10812;DHT22;5458;51.496;7.334;2022-07-17T07:49:58;39.30;30.90
10812;DHT22;5458;51.496;7.334;2022-07-17T07:52:23;38.40;31.30
10812;DHT22;5458;51.496;7.334;2022-07-17T07:54:49;37.90;32.60
10812;DHT22;5458;51.496;7.334;2022-07-17T07:57:15;38.30;31.70
10812;DHT22;5458;51.496;7.334;2022-07-17T07:59:40;38.20;31.40
10812;DHT22;5458;51.496;7.334;2022-07-17T08:02:06;38.30;31.80
10812;DHT22;5458;51.496;7.334;2022-07-17T08:04:32;38.20;32.80
10812;DHT22;5458;51.496;7.334;2022-07-17T08:06:57;38.20;32.30
10812;DHT22;5458;51.496;7.334;2022-07-17T08:09:23;38.00;32.00
10812;DHT22;5458;51.496;7.334;2022-07-17T08:11:49;37.60;32.30
10812;DHT22;5458;51.496;7.334;2022-07-17T08:14:14;36.80;33.10
10812;DHT22;5458;51.496;7.334;2022-07-17T08:16:40;36.30;33.40
10812;DHT22;5458;51.496;7.334;2022-07-17T08:19:06;35.30;34.00
10812;DHT22;5458;51.496;7.334;2022-07-17T08:21:31;34.10;36.40
10812;DHT22;5458;51.496;7.334;2022-07-17T08:23:57;33.50;37.00
10812;DHT22;5458;51.496;7.334;2022-07-17T08:26:22;32.90;36.80
10812;DHT22;5458;51.496;7.334;2022-07-17T08:28:48;31.90;37.90
10812;DHT22;5458;51.496;7.334;2022-07-17T08:31:14;31.10;38.70
10812;DHT22;5458;51.496;7.334;2022-07-17T08:33:39;30.50;40.60
10812;DHT22;5458;51.496;7.334;2022-07-17T08:36:05;30.20;40.90
10812;DHT22;5458;51.496;7.334;2022-07-17T08:38:31;29.70;41.70
10812;DHT22;5458;51.496;7.334;2022-07-17T08:40:57;29.50;41.20
10812;DHT22;5458;51.496;7.334;2022-07-17T08:43:24;29.30;42.60
10812;DHT22;5458;51.496;7.334;2022-07-17T08:45:51;29.30;43.50
10812;DHT22;5458;51.496;7.334;2022-07-17T08:48:17;29.20;43.90
10812;DHT22;5458;51.496;7.334;2022-07-17T08:50:44;29.20;44.20
10812;DHT22;5458;51.496;7.334;2022-07-17T08:53:10;29.30;44.00
10812;DHT22;5458;51.496;7.334;2022-07-17T08:55:36;29.10;42.50
10812;DHT22;5458;51.496;7.334;2022-07-17T08:58:03;29.00;44.00
10812;DHT22;5458;51.496;7.334;2022-07-17T09:00:30;28.90;45.10
10812;DHT22;5458;51.496;7.334;2022-07-17T09:03:04;28.80;44.50
10812;DHT22;5458;51.496;7.334;2022-07-17T09:05:33;28.90;45.70
10812;DHT22;5458;51.496;7.334;2022-07-17T09:07:59;29.00;44.40
10812;DHT22;5458;51.496;7.334;2022-07-17T09:10:40;29.00;44.10
10812;DHT22;5458;51.496;7.334;2022-07-17T09:15:45;28.90;44.10
10812;DHT22;5458;51.496;7.334;2022-07-17T09:18:11;29.00;44.10
10812;DHT22;5458;51.496;7.334;2022-07-17T09:20:43;29.20;43.80
10812;DHT22;5458;51.496;7.334;2022-07-17T09:23:09;29.20;43.50
10812;DHT22;5458;51.496;7.334;2022-07-17T09:25:49;29.00;43.00
10812;DHT22;5458;51.496;7.334;2022-07-17T09:28:15;28.80;45.20
10812;DHT22;5458;51.496;7.334;2022-07-17T09:30:44;28.70;44.10
10812;DHT22;5458;51.496;7.334;2022-07-17T09:33:16;28.40;43.60
10812;DHT22;5458;51.496;7.334;2022-07-17T09:35:51;28.20;44.30
10812;DHT22;5458;51.496;7.334;2022-07-17T09:38:35;27.90;44.80
10812;DHT22;5458;51.496;7.334;2022-07-17T09:41:18;27.80;46.10
10812;DHT22;5458;51.496;7.334;2022-07-17T09:43:47;28.00;46.80
10812;DHT22;5458;51.496;7.334;2022-07-17T09:46:16;28.30;45.90
10812;DHT22;5458;51.496;7.334;2022-07-17T09:48:45;28.60;46.00
10812;DHT22;5458;51.496;7.334;2022-07-17T09:51:22;28.80;46.00
10812;DHT22;5458;51.496;7.334;2022-07-17T09:53:51;28.90;45.00
10812;DHT22;5458;51.496;7.334;2022-07-17T09:56:19;28.90;44.70
10812;DHT22;5458;51.496;7.334;2022-07-17T09:59:00;28.80;44.70
10812;DHT22;5458;51.496;7.334;2022-07-17T10:01:26;28.70;45.80
10812;DHT22;5458;51.496;7.334;2022-07-17T10:03:52;28.70;45.10
10812;DHT22;5458;51.496;7.334;2022-07-17T10:06:20;28.60;45.70
10812;DHT22;5458;51.496;7.334;2022-07-17T10:08:46;28.60;45.40
10812;DHT22;5458;51.496;7.334;2022-07-17T10:11:12;28.60;44.60
10812;DHT22;5458;51.496;7.334;2022-07-17T10:13:43;28.10;44.90
10812;DHT22;5458;51.496;7.334;2022-07-17T10:16:10;28.00;46.60
10812;DHT22;5458;51.496;7.334;2022-07-17T10:18:39;28.30;45.30
10812;DHT22;5458;51.496;7.334;2022-07-17T10:23:36;28.70;44.30
10812;DHT22;5458;51.496;7.334;2022-07-17T10:26:02;28.70;44.50
10812;DHT22;5458;51.496;7.334;2022-07-17T10:28:47;28.80;43.50
10812;DHT22;5458;51.496;7.334;2022-07-17T10:31:24;28.90;42.90
10812;DHT22;5458;51.496;7.334;2022-07-17T10:34:04;28.70;43.80
10812;DHT22;5458;51.496;7.334;2022-07-17T10:39:12;28.60;44.60
10812;DHT22;5458;51.496;7.334;2022-07-17T10:41:39;28.60;44.40
10812;DHT22;5458;51.496;7.334;2022-07-17T10:44:04;28.50;44.10
10812;DHT22;5458;51.496;7.334;2022-07-17T10:46:30;28.40;44.30
10812;DHT22;5458;51.496;7.334;2022-07-17T10:48:56;28.30;44.20
10812;DHT22;5458;51.496;7.334;2022-07-17T10:51:25;28.20;43.50
10812;DHT22;5458;51.496;7.334;2022-07-17T10:53:56;28.10;45.00
10812;DHT22;5458;51.496;7.334;2022-07-17T10:56:24;28.20;45.90
10812;DHT22;5458;51.496;7.334;2022-07-17T10:58:51;28.40;45.00
10812;DHT22;5458;51.496;7.334;2022-07-17T11:01:19;28.60;43.90
10812;DHT22;5458;51.496;7.334;2022-07-17T11:03:52;28.60;44.00
10812;DHT22;5458;51.496;7.334;2022-07-17T11:06:23;28.60;44.70
10812;DHT22;5458;51.496;7.334;2022-07-17T11:11:18;28.40;45.40
10812;DHT22;5458;51.496;7.334;2022-07-17T11:13:44;28.30;43.90
10812;DHT22;5458;51.496;7.334;2022-07-17T11:16:09;28.30;44.20
10812;DHT22;5458;51.496;7.334;2022-07-17T11:18:35;28.40;44.00
10812;DHT22;5458;51.496;7.334;2022-07-17T11:21:04;28.50;45.20
10812;DHT22;5458;51.496;7.334;2022-07-17T11:23:32;28.70;43.80
10812;DHT22;5458;51.496;7.334;2022-07-17T11:26:00;28.40;43.00
10812;DHT22;5458;51.496;7.334;2022-07-17T11:28:40;28.20;43.50
10812;DHT22;5458;51.496;7.334;2022-07-17T11:31:23;27.90;42.20
10812;DHT22;5458;51.496;7.334;2022-07-17T11:36:26;27.60;43.90
10812;DHT22;5458;51.496;7.334;2022-07-17T11:38:53;27.40;43.50
10812;DHT22;5458;51.496;7.334;2022-07-17T11:41:19;27.60;45.00
10812;DHT22;5458;51.496;7.334;2022-07-17T11:43:46;27.70;43.20
10812;DHT22;5458;51.496;7.334;2022-07-17T11:46:14;27.50;43.60
10812;DHT22;5458;51.496;7.334;2022-07-17T11:48:42;27.60;45.20
10812;DHT22;5458;51.496;7.334;2022-07-17T11:51:07;27.70;44.30
10812;DHT22;5458;51.496;7.334;2022-07-17T11:53:34;27.80;43.00
10812;DHT22;5458;51.496;7.334;2022-07-17T11:56:01;27.70;44.20
10812;DHT22;5458;51.496;7.334;2022-07-17T11:58:27;27.80;44.50
10812;DHT22;5458;51.496;7.334;2022-07-17T12:01:03;27.90;44.50
10812;DHT22;5458;51.496;7.334;2022-07-17T12:03:29;27.60;43.60
10812;DHT22;5458;51.496;7.334;2022-07-17T12:05:55;27.60;43.70
10812;DHT22;5458;51.496;7.334;2022-07-17T12:08:21;27.70;43.40
10812;DHT22;5458;51.496;7.334;2022-07-17T12:10:46;27.80;43.40
10812;DHT22;5458;51.496;7.334;2022-07-17T12:13:15;28.00;43.20
10812;DHT22;5458;51.496;7.334;2022-07-17T12:15:46;28.10;43.50
10812;DHT22;5458;51.496;7.334;2022-07-17T12:18:25;28.10;43.10
10812;DHT22;5458;51.496;7.334;2022-07-17T12:20:52;28.10;40.90
10812;DHT22;5458;51.496;7.334;2022-07-17T12:23:38;27.90;42.00
10812;DHT22;5458;51.496;7.334;2022-07-17T12:26:12;28.00;41.00
10812;DHT22;5458;51.496;7.334;2022-07-17T12:28:39;28.00;41.30
10812;DHT22;5458;51.496;7.334;2022-07-17T12:31:07;28.00;40.80
10812;DHT22;5458;51.496;7.334;2022-07-17T12:33:33;28.10;40.00
10812;DHT22;5458;51.496;7.334;2022-07-17T12:35:58;28.00;41.00
10812;DHT22;5458;51.496;7.334;2022-07-17T12:38:24;28.00;40.90
10812;DHT22;5458;51.496;7.334;2022-07-17T12:40:49;27.90;41.80
10812;DHT22;5458;51.496;7.334;2022-07-17T12:43:15;27.90;42.60
10812;DHT22;5458;51.496;7.334;2022-07-17T12:45:41;28.00;42.70
10812;DHT22;5458;51.496;7.334;2022-07-17T12:48:06;28.10;42.80
10812;DHT22;5458;51.496;7.334;2022-07-17T12:50:32;28.20;43.10
10812;DHT22;5458;51.496;7.334;2022-07-17T12:52:58;28.20;42.70
10812;DHT22;5458;51.496;7.334;2022-07-17T12:55:24;28.20;41.00
10812;DHT22;5458;51.496;7.334;2022-07-17T12:57:49;27.90;41.90
10812;DHT22;5458;51.496;7.334;2022-07-17T13:00:15;27.80;42.60
10812;DHT22;5458;51.496;7.334;2022-07-17T13:02:41;27.80;42.10
10812;DHT22;5458;51.496;7.334;2022-07-17T13:05:07;27.80;43.50
10812;DHT22;5458;51.496;7.334;2022-07-17T13:07:34;27.80;42.60
10812;DHT22;5458;51.496;7.334;2022-07-17T13:09:59;27.50;41.80
10812;DHT22;5458;51.496;7.334;2022-07-17T13:12:25;27.40;42.60
10812;DHT22;5458;51.496;7.334;2022-07-17T13:14:51;27.40;42.20
10812;DHT22;5458;51.496;7.334;2022-07-17T13:17:16;27.40;42.60
10812;DHT22;5458;51.496;7.334;2022-07-17T13:19:42;27.40;43.20
10812;DHT22;5458;51.496;7.334;2022-07-17T13:22:08;27.50;42.00
10812;DHT22;5458;51.496;7.334;2022-07-17T13:24:34;27.60;41.60
10812;DHT22;5458;51.496;7.334;2022-07-17T13:27:00;27.50;41.20
10812;DHT22;5458;51.496;7.334;2022-07-17T13:29:26;27.60;42.70
10812;DHT22;5458;51.496;7.334;2022-07-17T13:31:55;27.60;42.00
10812;DHT22;5458;51.496;7.334;2022-07-17T13:34:22;27.70;41.30
10812;DHT22;5458;51.496;7.334;2022-07-17T13:36:48;27.70;41.50
10812;DHT22;5458;51.496;7.334;2022-07-17T13:39:14;27.70;41.30
10812;DHT22;5458;51.496;7.334;2022-07-17T13:41:40;27.60;40.60
10812;DHT22;5458;51.496;7.334;2022-07-17T13:44:06;27.60;41.70
10812;DHT22;5458;51.496;7.334;2022-07-17T13:46:32;27.60;42.50
10812;DHT22;5458;51.496;7.334;2022-07-17T13:48:58;27.80;42.60
10812;DHT22;5458;51.496;7.334;2022-07-17T13:51:23;27.80;42.50
10812;DHT22;5458;51.496;7.334;2022-07-17T13:53:50;28.00;42.20
10812;DHT22;5458;51.496;7.334;2022-07-17T13:56:16;28.00;41.00
10812;DHT22;5458;51.496;7.334;2022-07-17T13:58:42;27.80;41.50
10812;DHT22;5458;51.496;7.334;2022-07-17T14:01:07;27.80;42.30
10812;DHT22;5458;51.496;7.334;2022-07-17T14:03:33;27.80;42.20
10812;DHT22;5458;51.496;7.334;2022-07-17T14:05:59;27.90;42.30
10812;DHT22;5458;51.496;7.334;2022-07-17T14:08:25;27.90;41.30
10812;DHT22;5458;51.496;7.334;2022-07-17T14:10:50;27.90;41.50
10812;DHT22;5458;51.496;7.334;2022-07-17T14:13:16;28.00;41.60
10812;DHT22;5458;51.496;7.334;2022-07-17T14:15:41;28.00;41.50
10812;DHT22;5458;51.496;7.334;2022-07-17T14:18:07;28.20;41.90
10812;DHT22;5458;51.496;7.334;2022-07-17T14:20:33;28.30;41.30
10812;DHT22;5458;51.496;7.334;2022-07-17T14:22:58;28.30;40.80
10812;DHT22;5458;51.496;7.334;2022-07-17T14:25:24;28.30;41.30
10812;DHT22;5458;51.496;7.334;2022-07-17T14:27:50;28.40;39.70
10812;DHT22;5458;51.496;7.334;2022-07-17T14:30:15;28.40;39.60
10812;DHT22;5458;51.496;7.334;2022-07-17T14:32:41;28.20;39.20
10812;DHT22;5458;51.496;7.334;2022-07-17T14:35:07;28.10;40.20
10812;DHT22;5458;51.496;7.334;2022-07-17T14:37:33;27.90;39.80
10812;DHT22;5458;51.496;7.334;2022-07-17T14:39:59;27.80;40.70
10812;DHT22;5458;51.496;7.334;2022-07-17T14:42:26;27.90;41.90
10812;DHT22;5458;51.496;7.334;2022-07-17T14:44:52;28.00;40.90
10812;DHT22;5458;51.496;7.334;2022-07-17T14:47:18;28.10;41.50
10812;DHT22;5458;51.496;7.334;2022-07-17T14:49:44;28.10;41.30
10812;DHT22;5458;51.496;7.334;2022-07-17T14:52:10;28.20;41.50
10812;DHT22;5458;51.496;7.334;2022-07-17T14:54:35;28.20;41.70
10812;DHT22;5458;51.496;7.334;2022-07-17T14:57:01;28.20;40.80
10812;DHT22;5458;51.496;7.334;2022-07-17T14:59:27;28.30;40.80
10812;DHT22;5458;51.496;7.334;2022-07-17T15:01:53;28.30;41.10
10812;DHT22;5458;51.496;7.334;2022-07-17T15:04:18;28.40;40.60
10812;DHT22;5458;51.496;7.334;2022-07-17T15:06:44;28.50;40.60
10812;DHT22;5458;51.496;7.334;2022-07-17T15:09:11;28.50;40.70
10812;DHT22;5458;51.496;7.334;2022-07-17T15:11:37;28.50;40.50
10812;DHT22;5458;51.496;7.334;2022-07-17T15:14:03;28.50;40.30
10812;DHT22;5458;51.496;7.334;2022-07-17T15:16:29;28.40;40.20
10812;DHT22;5458;51.496;7.334;2022-07-17T15:18:55;28.40;39.90
10812;DHT22;5458;51.496;7.334;2022-07-17T15:21:20;28.30;39.90
10812;DHT22;5458;51.496;7.334;2022-07-17T15:23:46;28.30;39.80
10812;DHT22;5458;51.496;7.334;2022-07-17T15:26:11;28.40;38.80
10812;DHT22;5458;51.496;7.334;2022-07-17T15:28:37;28.40;39.00
10812;DHT22;5458;51.496;7.334;2022-07-17T15:31:03;28.30;40.10
10812;DHT22;5458;51.496;7.334;2022-07-17T15:33:28;28.30;39.60
10812;DHT22;5458;51.496;7.334;2022-07-17T15:35:54;28.30;39.40
10812;DHT22;5458;51.496;7.334;2022-07-17T15:38:20;28.30;39.20
10812;DHT22;5458;51.496;7.334;2022-07-17T15:40:45;28.30;39.80
10812;DHT22;5458;51.496;7.334;2022-07-17T15:43:11;28.40;40.20
10812;DHT22;5458;51.496;7.334;2022-07-17T15:45:37;28.50;40.40
10812;DHT22;5458;51.496;7.334;2022-07-17T15:48:02;28.50;39.30
10812;DHT22;5458;51.496;7.334;2022-07-17T15:50:28;28.50;39.00
10812;DHT22;5458;51.496;7.334;2022-07-17T15:52:54;28.50;38.60